createdAt,value
2022-10-06T00:00:08.233Z,953.80
2022-10-06T00:00:18.237Z,953.80
2022-10-06T00:00:28.234Z,953.80
2022-10-06T00:00:38.233Z,953.81
2022-10-06T00:00:48.234Z,953.78
2022-10-06T00:00:58.287Z,953.81
2022-10-06T00:01:08.282Z,953.81
2022-10-06T00:01:18.285Z,953.77
2022-10-06T00:01:28.279Z,953.78
2022-10-06T00:01:38.260Z,953.78
2022-10-06T00:01:48.269Z,953.78
2022-10-06T00:01:58.271Z,953.80
2022-10-06T00:02:08.290Z,953.78
2022-10-06T00:02:18.268Z,953.77
2022-10-06T00:02:28.388Z,953.79
2022-10-06T00:02:38.275Z,953.80
2022-10-06T00:02:48.290Z,953.83
2022-10-06T00:02:58.272Z,953.83
2022-10-06T00:03:08.244Z,953.83
2022-10-06T00:03:18.243Z,953.83
2022-10-06T00:03:28.245Z,953.81
2022-10-06T00:03:38.246Z,953.81
2022-10-06T00:03:48.248Z,953.83
2022-10-06T00:03:58.247Z,953.77
2022-10-06T00:04:08.248Z,953.81
2022-10-06T00:04:18.249Z,953.86
2022-10-06T00:04:28.252Z,953.82
2022-10-06T00:04:38.250Z,953.80
2022-10-06T00:04:48.253Z,953.78
2022-10-06T00:04:58.258Z,953.79
2022-10-06T00:05:08.254Z,953.82
2022-10-06T00:05:18.260Z,953.81
2022-10-06T00:05:28.255Z,953.78
2022-10-06T00:05:38.263Z,953.81
2022-10-06T00:05:48.257Z,953.83
2022-10-06T00:05:58.260Z,953.84
2022-10-06T00:06:08.257Z,953.85
2022-10-06T00:06:18.268Z,953.85
2022-10-06T00:06:28.263Z,953.86
2022-10-06T00:06:38.262Z,953.89
2022-10-06T00:06:48.264Z,953.87
2022-10-06T00:06:58.265Z,953.87
2022-10-06T00:07:08.267Z,953.86
2022-10-06T00:07:18.266Z,953.87
2022-10-06T00:07:28.267Z,953.85
2022-10-06T00:07:38.268Z,953.84
2022-10-06T00:07:48.269Z,953.85
2022-10-06T00:07:58.269Z,953.86
2022-10-06T00:08:10.251Z,953.85
2022-10-06T00:08:18.270Z,953.86
2022-10-06T00:08:28.612Z,953.88
2022-10-06T00:08:38.270Z,953.85
2022-10-06T00:08:48.278Z,953.83
2022-10-06T00:08:58.270Z,953.83
2022-10-06T00:09:08.281Z,953.86
2022-10-06T00:09:18.277Z,953.85
2022-10-06T00:09:28.277Z,953.86
2022-10-06T00:09:38.278Z,953.89
2022-10-06T00:09:48.277Z,953.90
2022-10-06T00:09:58.279Z,953.87
2022-10-06T00:10:08.281Z,953.88
2022-10-06T00:10:18.280Z,953.92
2022-10-06T00:10:28.281Z,953.92
2022-10-06T00:10:38.284Z,953.91
2022-10-06T00:10:48.287Z,953.91
2022-10-06T00:10:58.283Z,953.95
2022-10-06T00:11:08.285Z,953.91
2022-10-06T00:11:18.273Z,953.92
2022-10-06T00:11:28.287Z,953.92
2022-10-06T00:11:38.292Z,953.89
2022-10-06T00:11:48.289Z,953.92
2022-10-06T00:11:58.288Z,953.94
2022-10-06T00:12:08.293Z,953.95
2022-10-06T00:12:18.291Z,953.94
2022-10-06T00:12:28.290Z,953.92
2022-10-06T00:12:38.292Z,953.92
2022-10-06T00:12:48.294Z,953.95
2022-10-06T00:12:58.295Z,953.93
2022-10-06T00:13:08.297Z,953.91
2022-10-06T00:13:18.297Z,953.93
2022-10-06T00:13:28.296Z,953.93
2022-10-06T00:13:38.298Z,953.94
2022-10-06T00:13:48.283Z,953.93
2022-10-06T00:13:58.302Z,953.94
2022-10-06T00:14:08.301Z,953.94
2022-10-06T00:14:18.302Z,953.94
2022-10-06T00:14:28.302Z,953.92
2022-10-06T00:14:38.302Z,953.93
2022-10-06T00:14:48.304Z,953.92
2022-10-06T00:14:58.304Z,953.93
2022-10-06T00:15:08.310Z,953.93
2022-10-06T00:15:18.305Z,953.91
2022-10-06T00:15:28.355Z,953.92
2022-10-06T00:15:38.343Z,953.91
2022-10-06T00:15:48.341Z,953.91
2022-10-06T00:15:58.367Z,953.96
2022-10-06T00:16:08.380Z,953.95
2022-10-06T00:16:18.363Z,953.93
2022-10-06T00:16:28.314Z,953.92
2022-10-06T00:16:38.296Z,953.93
2022-10-06T00:16:48.320Z,953.93
2022-10-06T00:16:58.381Z,953.96
2022-10-06T00:17:08.322Z,953.96
2022-10-06T00:17:18.315Z,953.97
2022-10-06T00:17:28.323Z,953.97
2022-10-06T00:17:38.316Z,953.92
2022-10-06T00:17:48.304Z,953.91
2022-10-06T00:17:58.318Z,953.92
2022-10-06T00:18:08.321Z,953.93
2022-10-06T00:18:18.320Z,953.95
2022-10-06T00:18:28.639Z,953.97
2022-10-06T00:18:38.323Z,953.97
2022-10-06T00:18:48.327Z,953.97
2022-10-06T00:18:58.325Z,953.97
2022-10-06T00:19:08.330Z,953.96
2022-10-06T00:19:18.323Z,953.95
2022-10-06T00:19:28.331Z,953.95
2022-10-06T00:19:38.326Z,953.97
2022-10-06T00:19:48.325Z,953.92
2022-10-06T00:19:58.326Z,953.92
2022-10-06T00:20:08.328Z,953.92
2022-10-06T00:20:18.327Z,953.94
2022-10-06T00:20:28.329Z,953.91
2022-10-06T00:20:38.327Z,953.91
2022-10-06T00:20:48.329Z,953.90
2022-10-06T00:20:58.330Z,953.89
2022-10-06T00:21:08.337Z,953.91
2022-10-06T00:21:18.332Z,953.91
2022-10-06T00:21:28.333Z,953.93
2022-10-06T00:21:38.338Z,953.95
2022-10-06T00:21:48.334Z,953.98
2022-10-06T00:21:58.343Z,953.98
2022-10-06T00:22:08.341Z,953.93
2022-10-06T00:22:18.342Z,953.94
2022-10-06T00:22:28.339Z,953.95
2022-10-06T00:22:38.342Z,953.96
2022-10-06T00:22:48.327Z,953.97
2022-10-06T00:22:58.327Z,953.93
2022-10-06T00:23:08.341Z,953.90
2022-10-06T00:23:18.374Z,953.92
2022-10-06T00:23:28.343Z,953.94
2022-10-06T00:23:38.343Z,953.93
2022-10-06T00:23:48.345Z,953.93
2022-10-06T00:23:58.352Z,953.91
2022-10-06T00:24:08.344Z,953.91
2022-10-06T00:24:18.347Z,953.91
2022-10-06T00:24:28.335Z,953.93
2022-10-06T00:24:38.349Z,953.92
2022-10-06T00:24:48.349Z,953.96
2022-10-06T00:24:58.350Z,953.96
2022-10-06T00:25:08.350Z,953.95
2022-10-06T00:25:18.353Z,953.96
2022-10-06T00:25:28.364Z,953.96
2022-10-06T00:25:38.352Z,953.91
2022-10-06T00:25:48.337Z,953.91
2022-10-06T00:25:58.366Z,953.92
2022-10-06T00:26:08.356Z,953.93
2022-10-06T00:26:18.341Z,953.93
2022-10-06T00:26:28.355Z,953.93
2022-10-06T00:26:38.358Z,953.90
2022-10-06T00:26:48.366Z,953.90
2022-10-06T00:26:58.361Z,953.93
2022-10-06T00:27:08.393Z,953.95
2022-10-06T00:27:18.359Z,953.95
2022-10-06T00:27:28.364Z,953.95
2022-10-06T00:27:38.364Z,953.95
2022-10-06T00:27:48.362Z,953.96
2022-10-06T00:27:58.396Z,953.92
2022-10-06T00:28:08.393Z,953.93
2022-10-06T00:28:18.411Z,953.94
2022-10-06T00:28:28.952Z,953.94
2022-10-06T00:28:38.399Z,953.91
2022-10-06T00:28:48.547Z,953.95
2022-10-06T00:28:58.366Z,953.96
2022-10-06T00:29:08.368Z,953.92
2022-10-06T00:29:18.370Z,953.97
2022-10-06T00:29:28.368Z,953.93
2022-10-06T00:29:38.369Z,953.92
2022-10-06T00:29:48.372Z,953.94
2022-10-06T00:29:58.372Z,953.96
2022-10-06T00:30:08.375Z,953.97
2022-10-06T00:30:18.373Z,953.95
2022-10-06T00:30:28.376Z,953.95
2022-10-06T00:30:38.375Z,953.93
2022-10-06T00:30:48.447Z,953.90
2022-10-06T00:30:58.432Z,953.92
2022-10-06T00:31:08.453Z,953.92
2022-10-06T00:31:18.407Z,953.92
2022-10-06T00:31:28.427Z,953.93
2022-10-06T00:31:38.378Z,953.94
2022-10-06T00:31:48.379Z,953.93
2022-10-06T00:31:58.381Z,953.95
2022-10-06T00:32:08.383Z,953.94
2022-10-06T00:32:18.382Z,953.94
2022-10-06T00:32:28.382Z,953.96
2022-10-06T00:32:38.381Z,953.93
2022-10-06T00:32:48.385Z,953.92
2022-10-06T00:32:58.385Z,953.93
2022-10-06T00:33:08.384Z,953.91
2022-10-06T00:33:18.387Z,953.92
2022-10-06T00:33:28.386Z,953.95
2022-10-06T00:33:38.393Z,953.96
2022-10-06T00:33:48.390Z,953.92
2022-10-06T00:33:58.391Z,953.95
2022-10-06T00:34:08.395Z,953.96
2022-10-06T00:34:18.394Z,953.96
2022-10-06T00:34:28.412Z,953.92
2022-10-06T00:34:38.394Z,953.92
2022-10-06T00:34:48.395Z,953.93
2022-10-06T00:34:58.396Z,953.97
2022-10-06T00:35:08.398Z,953.99
2022-10-06T00:35:18.398Z,953.91
2022-10-06T00:35:28.398Z,953.91
2022-10-06T00:35:38.401Z,953.92
2022-10-06T00:35:48.400Z,953.93
2022-10-06T00:35:58.401Z,953.93
2022-10-06T00:36:08.401Z,953.91
2022-10-06T00:36:18.403Z,953.94
2022-10-06T00:36:28.403Z,953.97
2022-10-06T00:36:38.404Z,953.95
2022-10-06T00:36:48.402Z,953.92
2022-10-06T00:36:58.404Z,953.93
2022-10-06T00:37:08.407Z,953.94
2022-10-06T00:37:18.414Z,953.95
2022-10-06T00:37:28.392Z,953.93
2022-10-06T00:37:38.410Z,953.90
2022-10-06T00:37:48.407Z,953.92
2022-10-06T00:37:58.408Z,953.92
2022-10-06T00:38:08.411Z,953.95
2022-10-06T00:38:18.410Z,953.97
2022-10-06T00:38:28.781Z,953.95
2022-10-06T00:38:38.411Z,953.90
2022-10-06T00:38:48.419Z,953.93
2022-10-06T00:38:58.418Z,953.95
2022-10-06T00:39:08.414Z,953.96
2022-10-06T00:39:18.416Z,953.98
2022-10-06T00:39:28.427Z,953.96
2022-10-06T00:39:38.403Z,953.95
2022-10-06T00:39:48.417Z,953.95
2022-10-06T00:39:58.420Z,953.97
2022-10-06T00:40:08.419Z,953.96
2022-10-06T00:40:18.421Z,953.96
2022-10-06T00:40:28.424Z,953.96
2022-10-06T00:40:38.421Z,953.96
2022-10-06T00:40:48.424Z,953.95
2022-10-06T00:40:58.420Z,953.95
2022-10-06T00:41:08.431Z,953.89
2022-10-06T00:41:18.427Z,953.92
2022-10-06T00:41:28.425Z,953.92
2022-10-06T00:41:38.426Z,953.88
2022-10-06T00:41:48.429Z,953.88
2022-10-06T00:41:58.432Z,953.88
2022-10-06T00:42:08.431Z,953.92
2022-10-06T00:42:18.459Z,953.93
2022-10-06T00:42:28.429Z,953.93
2022-10-06T00:42:38.435Z,953.93
2022-10-06T00:42:48.432Z,953.95
2022-10-06T00:42:58.443Z,953.96
2022-10-06T00:43:08.433Z,953.95
2022-10-06T00:43:18.434Z,953.94
2022-10-06T00:43:28.434Z,953.94
2022-10-06T00:43:38.435Z,953.98
2022-10-06T00:43:48.433Z,953.98
2022-10-06T00:43:58.436Z,953.96
2022-10-06T00:44:08.435Z,953.96
2022-10-06T00:44:18.421Z,953.96
2022-10-06T00:44:28.437Z,953.95
2022-10-06T00:44:38.436Z,953.94
2022-10-06T00:44:48.439Z,953.96
2022-10-06T00:44:58.443Z,953.97
2022-10-06T00:45:08.440Z,953.94
2022-10-06T00:45:18.440Z,953.92
2022-10-06T00:45:28.425Z,953.92
2022-10-06T00:45:38.443Z,953.91
2022-10-06T00:45:48.442Z,953.90
2022-10-06T00:45:58.489Z,953.92
2022-10-06T00:46:08.501Z,953.94
2022-10-06T00:46:18.486Z,953.94
2022-10-06T00:46:28.520Z,953.94
2022-10-06T00:46:38.498Z,953.94
2022-10-06T00:46:48.449Z,953.93
2022-10-06T00:46:58.457Z,953.88
2022-10-06T00:47:08.452Z,953.91
2022-10-06T00:47:18.452Z,953.94
2022-10-06T00:47:28.452Z,953.97
2022-10-06T00:47:38.450Z,953.93
2022-10-06T00:47:48.456Z,953.94
2022-10-06T00:47:58.453Z,953.94
2022-10-06T00:48:08.452Z,953.95
2022-10-06T00:48:18.459Z,953.95
2022-10-06T00:48:28.737Z,953.92
2022-10-06T00:48:38.455Z,953.92
2022-10-06T00:48:48.456Z,953.91
2022-10-06T00:48:58.462Z,953.91
2022-10-06T00:49:08.455Z,953.92
2022-10-06T00:49:18.458Z,953.88
2022-10-06T00:49:28.456Z,953.86
2022-10-06T00:49:38.457Z,953.85
2022-10-06T00:49:48.460Z,953.86
2022-10-06T00:49:58.460Z,953.86
2022-10-06T00:50:08.461Z,953.86
2022-10-06T00:50:18.461Z,953.88
2022-10-06T00:50:28.462Z,953.89
2022-10-06T00:50:38.465Z,953.87
2022-10-06T00:50:48.464Z,953.88
2022-10-06T00:50:58.468Z,953.90
2022-10-06T00:51:08.463Z,953.90
2022-10-06T00:51:18.468Z,953.90
2022-10-06T00:51:28.467Z,953.90
2022-10-06T00:51:38.468Z,953.94
2022-10-06T00:51:48.476Z,953.93
2022-10-06T00:51:58.471Z,953.91
2022-10-06T00:52:08.475Z,953.88
2022-10-06T00:52:18.469Z,953.90
2022-10-06T00:52:28.474Z,953.91
2022-10-06T00:52:38.473Z,953.91
2022-10-06T00:52:48.473Z,953.91
2022-10-06T00:52:58.473Z,953.94
2022-10-06T00:53:08.474Z,953.89
2022-10-06T00:53:18.475Z,953.91
2022-10-06T00:53:28.477Z,953.95
2022-10-06T00:53:38.476Z,953.95
2022-10-06T00:53:48.484Z,953.92
2022-10-06T00:53:58.477Z,953.92
2022-10-06T00:54:08.477Z,953.91
2022-10-06T00:54:18.479Z,953.93
2022-10-06T00:54:28.485Z,953.93
2022-10-06T00:54:38.479Z,953.94
2022-10-06T00:54:48.481Z,953.94
2022-10-06T00:54:58.482Z,953.95
2022-10-06T00:55:08.482Z,953.98
2022-10-06T00:55:18.486Z,953.89
2022-10-06T00:55:28.486Z,953.89
2022-10-06T00:55:38.483Z,953.94
2022-10-06T00:55:48.486Z,953.93
2022-10-06T00:55:58.488Z,953.89
2022-10-06T00:56:08.487Z,953.89
2022-10-06T00:56:18.490Z,953.95
2022-10-06T00:56:28.490Z,953.90
2022-10-06T00:56:38.491Z,953.91
2022-10-06T00:56:48.495Z,953.92
2022-10-06T00:56:58.492Z,953.93
2022-10-06T00:57:08.496Z,953.93
2022-10-06T00:57:18.491Z,953.95
2022-10-06T00:57:28.493Z,953.93
2022-10-06T00:57:38.493Z,953.93
2022-10-06T00:57:48.498Z,953.95
2022-10-06T00:57:58.495Z,953.95
2022-10-06T00:58:08.496Z,953.93
2022-10-06T00:58:18.497Z,953.91
2022-10-06T00:58:28.739Z,953.93
2022-10-06T00:58:38.500Z,953.95
2022-10-06T00:58:48.499Z,953.96
2022-10-06T00:58:58.492Z,953.95
2022-10-06T00:59:08.503Z,953.95
2022-10-06T00:59:18.504Z,953.97
2022-10-06T00:59:28.505Z,953.98
2022-10-06T00:59:38.509Z,953.94
2022-10-06T00:59:48.509Z,953.98
2022-10-06T00:59:58.508Z,954.00
2022-10-06T01:00:08.514Z,954.00
2022-10-06T01:00:18.508Z,953.99
2022-10-06T01:00:28.509Z,953.99
2022-10-06T01:00:38.510Z,954.02
2022-10-06T01:00:48.512Z,954.07
2022-10-06T01:00:58.510Z,954.00
2022-10-06T01:01:08.552Z,954.01
2022-10-06T01:01:18.569Z,954.03
2022-10-06T01:01:28.530Z,954.03
2022-10-06T01:01:38.536Z,954.02
2022-10-06T01:01:48.562Z,954.05
2022-10-06T01:01:58.512Z,954.05
2022-10-06T01:02:08.539Z,954.03
2022-10-06T01:02:18.561Z,954.03
2022-10-06T01:02:28.546Z,954.04
2022-10-06T01:02:38.566Z,954.04
2022-10-06T01:02:48.559Z,954.01
2022-10-06T01:02:58.566Z,953.98
2022-10-06T01:03:08.554Z,954.00
2022-10-06T01:03:18.543Z,954.01
2022-10-06T01:03:28.524Z,954.04
2022-10-06T01:03:38.530Z,954.04
2022-10-06T01:03:48.553Z,954.02
2022-10-06T01:03:58.528Z,954.06
2022-10-06T01:04:08.527Z,954.06
2022-10-06T01:04:18.528Z,954.07
2022-10-06T01:04:28.528Z,954.07
2022-10-06T01:04:38.528Z,954.08
2022-10-06T01:04:48.527Z,954.11
2022-10-06T01:04:58.541Z,954.09
2022-10-06T01:05:08.536Z,954.06
2022-10-06T01:05:18.531Z,954.03
2022-10-06T01:05:28.535Z,954.03
2022-10-06T01:05:38.535Z,954.05
2022-10-06T01:05:48.536Z,954.06
2022-10-06T01:05:58.584Z,954.03
2022-10-06T01:06:08.537Z,954.03
2022-10-06T01:06:18.537Z,954.01
2022-10-06T01:06:28.537Z,954.04
2022-10-06T01:06:38.540Z,954.06
2022-10-06T01:06:48.539Z,954.06
2022-10-06T01:06:58.527Z,954.09
2022-10-06T01:07:08.543Z,954.09
2022-10-06T01:07:18.544Z,954.10
2022-10-06T01:07:28.541Z,954.10
2022-10-06T01:07:38.545Z,954.10
2022-10-06T01:07:48.527Z,954.10
2022-10-06T01:07:58.542Z,954.11
2022-10-06T01:08:08.543Z,954.12
2022-10-06T01:08:18.557Z,954.14
2022-10-06T01:08:28.643Z,954.13
2022-10-06T01:08:38.545Z,954.13
2022-10-06T01:08:48.543Z,954.14
2022-10-06T01:08:58.549Z,954.14
2022-10-06T01:09:08.547Z,954.11
2022-10-06T01:09:18.549Z,954.11
2022-10-06T01:09:28.551Z,954.11
2022-10-06T01:09:38.550Z,954.12
2022-10-06T01:09:48.554Z,954.13
2022-10-06T01:09:58.552Z,954.13
2022-10-06T01:10:08.554Z,954.11
2022-10-06T01:10:18.551Z,954.12
2022-10-06T01:10:28.554Z,954.12
2022-10-06T01:10:38.556Z,954.13
2022-10-06T01:10:48.559Z,954.14
2022-10-06T01:10:58.558Z,954.14
2022-10-06T01:11:08.562Z,954.14
2022-10-06T01:11:18.558Z,954.14
2022-10-06T01:11:28.559Z,954.14
2022-10-06T01:11:38.559Z,954.10
2022-10-06T01:11:48.560Z,954.11
2022-10-06T01:11:58.562Z,954.12
2022-10-06T01:12:08.564Z,954.12
2022-10-06T01:12:18.564Z,954.12
2022-10-06T01:12:28.571Z,954.15
2022-10-06T01:12:38.563Z,954.14
2022-10-06T01:12:48.564Z,954.10
2022-10-06T01:12:58.566Z,954.12
2022-10-06T01:13:08.566Z,954.15
2022-10-06T01:13:18.569Z,954.18
2022-10-06T01:13:28.569Z,954.19
2022-10-06T01:13:38.569Z,954.18
2022-10-06T01:13:48.569Z,954.17
2022-10-06T01:13:58.572Z,954.20
2022-10-06T01:14:08.574Z,954.19
2022-10-06T01:14:18.572Z,954.22
2022-10-06T01:14:28.572Z,954.24
2022-10-06T01:14:38.579Z,954.25
2022-10-06T01:14:48.575Z,954.25
2022-10-06T01:14:58.592Z,954.15
2022-10-06T01:15:08.576Z,954.16
2022-10-06T01:15:18.582Z,954.16
2022-10-06T01:15:28.581Z,954.23
2022-10-06T01:15:38.617Z,954.28
2022-10-06T01:15:48.623Z,954.26
2022-10-06T01:15:58.606Z,954.25
2022-10-06T01:16:08.669Z,954.22
2022-10-06T01:16:18.615Z,954.21
2022-10-06T01:16:28.583Z,954.23
2022-10-06T01:16:38.583Z,954.25
2022-10-06T01:16:48.583Z,954.24
2022-10-06T01:16:58.585Z,954.31
2022-10-06T01:17:08.592Z,954.30
2022-10-06T01:17:18.587Z,954.30
2022-10-06T01:17:28.589Z,954.30
2022-10-06T01:17:38.586Z,954.36
2022-10-06T01:17:48.590Z,954.38
2022-10-06T01:17:58.589Z,954.40
2022-10-06T01:18:08.593Z,954.37
2022-10-06T01:18:18.592Z,954.32
2022-10-06T01:18:29.052Z,954.32
2022-10-06T01:18:38.595Z,954.29
2022-10-06T01:18:48.594Z,954.32
2022-10-06T01:18:58.598Z,954.34
2022-10-06T01:19:08.598Z,954.35
2022-10-06T01:19:18.598Z,954.35
2022-10-06T01:19:28.599Z,954.38
2022-10-06T01:19:38.601Z,954.39
2022-10-06T01:19:48.603Z,954.39
2022-10-06T01:19:58.600Z,954.39
2022-10-06T01:20:08.604Z,954.38
2022-10-06T01:20:18.607Z,954.37
2022-10-06T01:20:28.606Z,954.40
2022-10-06T01:20:38.606Z,954.41
2022-10-06T01:20:48.608Z,954.41
2022-10-06T01:20:58.618Z,954.34
2022-10-06T01:21:08.614Z,954.36
2022-10-06T01:21:18.611Z,954.39
2022-10-06T01:21:28.609Z,954.46
2022-10-06T01:21:38.611Z,954.48
2022-10-06T01:21:48.610Z,954.50
2022-10-06T01:21:58.611Z,954.47
2022-10-06T01:22:08.626Z,954.48
2022-10-06T01:22:18.618Z,954.47
2022-10-06T01:22:28.615Z,954.45
2022-10-06T01:22:38.616Z,954.44
2022-10-06T01:22:48.616Z,954.41
2022-10-06T01:22:58.618Z,954.44
2022-10-06T01:23:08.619Z,954.54
2022-10-06T01:23:18.617Z,954.54
2022-10-06T01:23:28.619Z,954.60
2022-10-06T01:23:38.621Z,954.60
2022-10-06T01:23:48.623Z,954.51
2022-10-06T01:23:58.621Z,954.50
2022-10-06T01:24:08.621Z,954.53
2022-10-06T01:24:18.625Z,954.55
2022-10-06T01:24:28.626Z,954.57
2022-10-06T01:24:38.624Z,954.55
2022-10-06T01:24:48.625Z,954.55
2022-10-06T01:24:58.625Z,954.59
2022-10-06T01:25:08.629Z,954.59
2022-10-06T01:25:18.627Z,954.60
2022-10-06T01:25:28.628Z,954.59
2022-10-06T01:25:38.629Z,954.59
2022-10-06T01:25:48.628Z,954.61
2022-10-06T01:25:58.635Z,954.62
2022-10-06T01:26:08.632Z,954.68
2022-10-06T01:26:18.634Z,954.67
2022-10-06T01:26:28.635Z,954.62
2022-10-06T01:26:38.638Z,954.66
2022-10-06T01:26:48.638Z,954.67
2022-10-06T01:26:58.635Z,954.62
2022-10-06T01:27:08.643Z,954.67
2022-10-06T01:27:18.636Z,954.68
2022-10-06T01:27:28.640Z,954.68
2022-10-06T01:27:38.642Z,954.67
2022-10-06T01:27:48.648Z,954.67
2022-10-06T01:27:58.698Z,954.69
2022-10-06T01:28:08.719Z,954.69
2022-10-06T01:28:18.716Z,954.66
2022-10-06T01:28:29.035Z,954.62
2022-10-06T01:28:38.674Z,954.63
2022-10-06T01:28:48.664Z,954.65
2022-10-06T01:28:58.643Z,954.64
2022-10-06T01:29:08.646Z,954.65
2022-10-06T01:29:18.645Z,954.67
2022-10-06T01:29:28.655Z,954.67
2022-10-06T01:29:38.647Z,954.68
2022-10-06T01:29:48.653Z,954.70
2022-10-06T01:29:58.656Z,954.74
2022-10-06T01:30:08.655Z,954.70
2022-10-06T01:30:18.651Z,954.65
2022-10-06T01:30:28.651Z,954.65
2022-10-06T01:30:38.651Z,954.60
2022-10-06T01:30:48.665Z,954.69
2022-10-06T01:30:58.735Z,954.73
2022-10-06T01:31:08.704Z,954.71
2022-10-06T01:31:18.708Z,954.68
2022-10-06T01:31:28.703Z,954.66
2022-10-06T01:31:38.660Z,954.68
2022-10-06T01:31:48.677Z,954.70
2022-10-06T01:31:58.656Z,954.74
2022-10-06T01:32:08.661Z,954.75
2022-10-06T01:32:18.657Z,954.74
2022-10-06T01:32:28.661Z,954.73
2022-10-06T01:32:38.668Z,954.73
2022-10-06T01:32:48.661Z,954.72
2022-10-06T01:32:58.668Z,954.69
2022-10-06T01:33:08.669Z,954.68
2022-10-06T01:33:18.664Z,954.68
2022-10-06T01:33:28.665Z,954.74
2022-10-06T01:33:38.669Z,954.69
2022-10-06T01:33:48.681Z,954.71
2022-10-06T01:33:58.667Z,954.69
2022-10-06T01:34:08.669Z,954.72
2022-10-06T01:34:18.672Z,954.72
2022-10-06T01:34:28.672Z,954.72
2022-10-06T01:34:38.671Z,954.70
2022-10-06T01:34:48.673Z,954.71
2022-10-06T01:34:58.671Z,954.72
2022-10-06T01:35:08.673Z,954.75
2022-10-06T01:35:18.674Z,954.71
2022-10-06T01:35:28.675Z,954.67
2022-10-06T01:35:38.673Z,954.70
2022-10-06T01:35:48.674Z,954.66
2022-10-06T01:35:58.677Z,954.75
2022-10-06T01:36:08.674Z,954.75
2022-10-06T01:36:18.678Z,954.75
2022-10-06T01:36:28.679Z,954.74
2022-10-06T01:36:38.680Z,954.75
2022-10-06T01:36:48.682Z,954.75
2022-10-06T01:36:58.680Z,954.73
2022-10-06T01:37:08.684Z,954.75
2022-10-06T01:37:18.682Z,954.75
2022-10-06T01:37:28.699Z,954.75
2022-10-06T01:37:38.686Z,954.74
2022-10-06T01:37:48.687Z,954.76
2022-10-06T01:37:58.693Z,954.82
2022-10-06T01:38:08.690Z,954.77
2022-10-06T01:38:18.719Z,954.81
2022-10-06T01:38:28.955Z,954.90
2022-10-06T01:38:38.695Z,954.92
2022-10-06T01:38:48.727Z,954.91
2022-10-06T01:38:58.697Z,954.91
2022-10-06T01:39:08.695Z,954.83
2022-10-06T01:39:18.697Z,954.82
2022-10-06T01:39:28.699Z,954.83
2022-10-06T01:39:38.698Z,954.87
2022-10-06T01:39:48.699Z,954.92
2022-10-06T01:39:58.700Z,954.93
2022-10-06T01:40:08.704Z,954.93
2022-10-06T01:40:18.704Z,954.91
2022-10-06T01:40:28.702Z,954.96
2022-10-06T01:40:38.702Z,954.97
2022-10-06T01:40:48.704Z,954.98
2022-10-06T01:40:58.706Z,955.02
2022-10-06T01:41:08.705Z,955.05
2022-10-06T01:41:18.705Z,954.99
2022-10-06T01:41:28.708Z,955.01
2022-10-06T01:41:38.706Z,955.02
2022-10-06T01:41:48.709Z,955.03
2022-10-06T01:41:58.711Z,955.02
2022-10-06T01:42:08.711Z,955.00
2022-10-06T01:42:18.712Z,955.00
2022-10-06T01:42:28.716Z,955.02
2022-10-06T01:42:38.772Z,955.01
2022-10-06T01:42:48.713Z,955.02
2022-10-06T01:42:58.717Z,955.02
2022-10-06T01:43:08.720Z,955.03
2022-10-06T01:43:18.717Z,955.05
2022-10-06T01:43:28.722Z,955.11
2022-10-06T01:43:38.718Z,955.10
2022-10-06T01:43:48.749Z,955.13
2022-10-06T01:43:58.720Z,955.08
2022-10-06T01:44:08.721Z,955.04
2022-10-06T01:44:18.725Z,955.03
2022-10-06T01:44:28.721Z,955.02
2022-10-06T01:44:38.727Z,955.06
2022-10-06T01:44:48.723Z,955.05
2022-10-06T01:44:58.725Z,955.04
2022-10-06T01:45:08.725Z,955.00
2022-10-06T01:45:18.726Z,955.02
2022-10-06T01:45:28.727Z,955.02
2022-10-06T01:45:38.729Z,955.08
2022-10-06T01:45:48.733Z,955.05
2022-10-06T01:45:58.791Z,955.01
2022-10-06T01:46:08.783Z,955.00
2022-10-06T01:46:18.785Z,955.00
2022-10-06T01:46:28.789Z,955.06
2022-10-06T01:46:38.767Z,955.09
2022-10-06T01:46:48.790Z,955.02
2022-10-06T01:46:58.737Z,955.08
2022-10-06T01:47:08.740Z,955.09
2022-10-06T01:47:18.738Z,955.11
2022-10-06T01:47:28.743Z,955.08
2022-10-06T01:47:38.740Z,955.08
2022-10-06T01:47:48.738Z,955.09
2022-10-06T01:47:58.740Z,955.14
2022-10-06T01:48:08.740Z,955.16
2022-10-06T01:48:18.741Z,955.16
2022-10-06T01:48:29.075Z,955.20
2022-10-06T01:48:38.742Z,955.20
2022-10-06T01:48:48.741Z,955.18
2022-10-06T01:48:58.746Z,955.20
2022-10-06T01:49:08.744Z,955.21
2022-10-06T01:49:18.747Z,955.28
2022-10-06T01:49:28.745Z,955.29
2022-10-06T01:49:38.759Z,955.31
2022-10-06T01:49:48.747Z,955.21
2022-10-06T01:49:58.749Z,955.22
2022-10-06T01:50:08.748Z,955.31
2022-10-06T01:50:18.751Z,955.21
2022-10-06T01:50:28.748Z,955.29
2022-10-06T01:50:38.754Z,955.24
2022-10-06T01:50:48.773Z,955.18
2022-10-06T01:50:58.756Z,955.32
2022-10-06T01:51:08.754Z,955.23
2022-10-06T01:51:18.754Z,955.27
2022-10-06T01:51:28.782Z,955.35
2022-10-06T01:51:38.759Z,955.37
2022-10-06T01:51:48.758Z,955.34
2022-10-06T01:51:58.761Z,955.34
2022-10-06T01:52:08.762Z,955.38
2022-10-06T01:52:18.761Z,955.36
2022-10-06T01:52:28.761Z,955.36
2022-10-06T01:52:38.763Z,955.35
2022-10-06T01:52:48.764Z,955.36
2022-10-06T01:52:58.769Z,955.31
2022-10-06T01:53:08.769Z,955.31
2022-10-06T01:53:18.766Z,955.38
2022-10-06T01:53:28.769Z,955.38
2022-10-06T01:53:38.773Z,955.38
2022-10-06T01:53:48.768Z,955.37
2022-10-06T01:53:58.768Z,955.40
2022-10-06T01:54:08.771Z,955.41
2022-10-06T01:54:18.773Z,955.40
2022-10-06T01:54:28.774Z,955.46
2022-10-06T01:54:38.774Z,955.48
2022-10-06T01:54:48.777Z,955.47
2022-10-06T01:54:58.781Z,955.48
2022-10-06T01:55:08.775Z,955.49
2022-10-06T01:55:18.777Z,955.48
2022-10-06T01:55:28.775Z,955.48
2022-10-06T01:55:38.777Z,955.46
2022-10-06T01:55:48.779Z,955.51
2022-10-06T01:55:58.790Z,955.53
2022-10-06T01:56:08.780Z,955.52
2022-10-06T01:56:18.780Z,955.52
2022-10-06T01:56:28.780Z,955.53
2022-10-06T01:56:38.783Z,955.56
2022-10-06T01:56:48.784Z,955.56
2022-10-06T01:56:58.782Z,955.57
2022-10-06T01:57:08.791Z,955.57
2022-10-06T01:57:18.786Z,955.59
2022-10-06T01:57:28.788Z,955.65
2022-10-06T01:57:38.788Z,955.70
2022-10-06T01:57:48.791Z,955.71
2022-10-06T01:57:58.788Z,955.66
2022-10-06T01:58:08.793Z,955.67
2022-10-06T01:58:18.791Z,955.61
2022-10-06T01:58:29.148Z,955.60
2022-10-06T01:58:38.793Z,955.68
2022-10-06T01:58:48.793Z,955.62
2022-10-06T01:58:58.794Z,955.67
2022-10-06T01:59:08.794Z,955.56
2022-10-06T01:59:18.799Z,955.70
2022-10-06T01:59:28.800Z,955.75
2022-10-06T01:59:38.801Z,955.76
2022-10-06T01:59:52.701Z,955.64
2022-10-06T01:59:59.801Z,955.70
2022-10-06T02:00:08.801Z,955.70
2022-10-06T02:00:18.801Z,955.74
2022-10-06T02:00:28.803Z,955.71
2022-10-06T02:00:38.805Z,955.69
2022-10-06T02:00:48.803Z,955.63
2022-10-06T02:00:58.806Z,955.63
2022-10-06T02:01:08.806Z,955.70
2022-10-06T02:01:18.877Z,955.66
2022-10-06T02:01:28.834Z,955.68
2022-10-06T02:01:38.871Z,955.68
2022-10-06T02:01:48.849Z,955.73
2022-10-06T02:01:58.858Z,955.72
2022-10-06T02:02:08.797Z,955.70
2022-10-06T02:02:18.810Z,955.69
2022-10-06T02:02:28.812Z,955.69
2022-10-06T02:02:38.810Z,955.71
2022-10-06T02:02:48.811Z,955.67
2022-10-06T02:02:58.813Z,955.59
2022-10-06T02:03:08.812Z,955.72
2022-10-06T02:03:18.813Z,955.83
2022-10-06T02:03:28.816Z,955.80
2022-10-06T02:03:38.817Z,955.64
2022-10-06T02:03:48.819Z,955.68
2022-10-06T02:03:58.847Z,955.69
2022-10-06T02:04:08.879Z,955.71
2022-10-06T02:04:18.871Z,955.74
2022-10-06T02:04:28.820Z,955.75
2022-10-06T02:04:38.821Z,955.66
2022-10-06T02:04:48.821Z,955.66